createdAt,value
2019-05-05T00:00:39.216Z,3.08
2019-05-05T00:03:24.983Z,3.04
2019-05-05T00:05:56.337Z,3.00
2019-05-05T00:08:26.617Z,3.02
2019-05-05T00:11:12.252Z,3.07
2019-05-05T00:13:49.483Z,3.15
2019-05-05T00:16:35.156Z,3.24
2019-05-05T00:19:05.816Z,3.30
2019-05-05T00:21:36.067Z,3.27
2019-05-05T00:24:06.356Z,3.19
2019-05-05T00:26:37.397Z,2.94
2019-05-05T00:29:07.711Z,2.65
2019-05-05T00:31:37.981Z,2.48
2019-05-05T00:34:08.356Z,2.38
2019-05-05T00:36:38.902Z,2.21
2019-05-05T00:39:10.813Z,2.06
2019-05-05T00:41:41.010Z,1.97
2019-05-05T00:44:11.281Z,1.96
2019-05-05T00:47:05.271Z,2.09
2019-05-05T00:49:46.450Z,2.11
2019-05-05T00:52:09.639Z,2.08
2019-05-05T00:54:39.901Z,2.07
2019-05-05T00:57:10.413Z,2.20
2019-05-05T00:59:40.723Z,2.35
2019-05-05T01:02:18.325Z,2.40
2019-05-05T01:05:01.110Z,2.48
2019-05-05T01:07:34.944Z,2.48
2019-05-05T01:10:05.492Z,2.44
2019-05-05T01:12:35.727Z,2.48
2019-05-05T01:15:06.364Z,2.48
2019-05-05T01:17:36.923Z,2.50
2019-05-05T01:20:07.449Z,2.53
2019-05-05T01:22:37.745Z,2.63
2019-05-05T01:25:08.493Z,2.73
2019-05-05T01:27:38.661Z,2.82
2019-05-05T01:30:12.612Z,2.87
2019-05-05T01:32:45.391Z,2.91
2019-05-05T01:35:16.053Z,2.96
2019-05-05T01:38:00.901Z,2.98
2019-05-05T01:40:49.363Z,3.02
2019-05-05T01:43:19.629Z,3.08
2019-05-05T01:45:50.349Z,2.98
2019-05-05T01:48:20.512Z,2.90
2019-05-05T01:50:51.303Z,2.82
2019-05-05T01:53:21.667Z,2.81
2019-05-05T01:55:54.110Z,2.84
2019-05-05T01:58:24.523Z,2.92
2019-05-05T02:00:55.005Z,2.88
2019-05-05T02:03:25.205Z,2.89
2019-05-05T02:05:55.619Z,2.90
2019-05-05T02:08:25.852Z,2.79
2019-05-05T02:10:56.241Z,2.79
2019-05-05T02:13:26.530Z,2.75
2019-05-05T02:15:57.208Z,2.80
2019-05-05T02:19:36.572Z,2.85
2019-05-05T02:22:06.849Z,2.88
2019-05-05T02:24:37.252Z,2.88
2019-05-05T02:27:07.528Z,2.85
2019-05-05T02:30:11.940Z,2.88
2019-05-05T02:32:45.863Z,2.89
2019-05-05T02:35:16.923Z,2.95
2019-05-05T02:37:47.611Z,2.90
2019-05-05T02:40:19.800Z,2.89
2019-05-05T02:42:54.720Z,2.90
2019-05-05T02:45:44.183Z,2.88
2019-05-05T02:48:16.023Z,2.89
2019-05-05T02:51:00.760Z,2.96
2019-05-05T02:53:37.355Z,2.99
2019-05-05T02:56:14.633Z,3.03
2019-05-05T02:58:45.696Z,3.04
2019-05-05T03:01:35.275Z,3.14
2019-05-05T03:04:06.508Z,3.13
2019-05-05T03:06:39.651Z,3.07
2019-05-05T03:09:10.228Z,3.05
2019-05-05T03:11:43.562Z,3.09
2019-05-05T03:14:14.804Z,3.11
2019-05-05T03:16:45.491Z,3.12
2019-05-05T03:19:16.480Z,3.13
2019-05-05T03:21:46.949Z,3.15
2019-05-05T03:24:17.370Z,2.97
2019-05-05T03:26:48.910Z,2.98
2019-05-05T03:29:21.376Z,2.99
2019-05-05T03:31:51.573Z,3.01
2019-05-05T03:34:23.999Z,3.07
2019-05-05T03:36:54.279Z,3.04
2019-05-05T03:39:26.470Z,3.09
2019-05-05T03:42:19.601Z,2.98
2019-05-05T03:45:11.972Z,3.04
2019-05-05T03:47:44.099Z,3.04
2019-05-05T03:50:15.178Z,3.09
2019-05-05T03:52:46.707Z,3.14
2019-05-05T03:55:17.465Z,3.13
2019-05-05T03:57:48.165Z,3.13
2019-05-05T04:00:29.711Z,3.03
2019-05-05T04:03:05.382Z,3.09
2019-05-05T04:05:54.534Z,3.10
2019-05-05T04:08:25.460Z,3.14
2019-05-05T04:10:55.788Z,3.13
2019-05-05T04:13:27.385Z,3.16
2019-05-05T04:16:17.239Z,3.14
2019-05-05T04:18:54.094Z,3.19
2019-05-05T04:21:31.284Z,3.21
2019-05-05T04:23:56.920Z,3.23
2019-05-05T04:26:27.433Z,3.26
2019-05-05T04:28:58.733Z,3.27
2019-05-05T04:31:29.020Z,3.31
2019-05-05T04:33:59.382Z,3.34
2019-05-05T04:36:29.651Z,3.38
2019-05-05T04:38:59.939Z,3.38
2019-05-05T04:41:30.201Z,3.42
2019-05-05T04:44:01.395Z,3.44
2019-05-05T04:46:33.723Z,3.46
2019-05-05T04:49:14.003Z,3.45
2019-05-05T04:51:50.046Z,3.51
2019-05-05T04:54:25.432Z,3.49
2019-05-05T04:56:55.724Z,3.51
2019-05-05T04:59:25.989Z,3.56
2019-05-05T05:01:59.010Z,3.63
2019-05-05T05:04:57.576Z,3.71
2019-05-05T05:07:28.093Z,3.72
2019-05-05T05:09:58.334Z,3.75
2019-05-05T05:12:28.664Z,3.76
2019-05-05T05:14:58.951Z,3.82
2019-05-05T05:17:40.236Z,3.86
2019-05-05T05:20:14.147Z,3.95
2019-05-05T05:22:44.472Z,4.00
2019-05-05T05:25:14.785Z,4.04
2019-05-05T05:27:44.956Z,4.03
2019-05-05T05:30:15.238Z,4.08
2019-05-05T05:32:45.521Z,4.17
2019-05-05T05:35:15.908Z,4.21
2019-05-05T05:37:46.159Z,4.28
2019-05-05T05:40:34.092Z,4.22
2019-05-05T05:43:06.374Z,4.22
2019-05-05T05:45:44.310Z,4.24
2019-05-05T05:48:26.745Z,4.21
2019-05-05T05:50:59.897Z,4.14
2019-05-05T05:53:30.295Z,4.27
2019-05-05T05:56:00.783Z,4.47
2019-05-05T05:58:31.184Z,4.46
2019-05-05T06:01:04.163Z,4.53
2019-05-05T06:03:34.148Z,4.52
2019-05-05T06:06:04.851Z,4.51
2019-05-05T06:08:35.207Z,4.47
2019-05-05T06:11:05.490Z,4.32
2019-05-05T06:13:35.660Z,4.24
2019-05-05T06:16:05.981Z,4.16
2019-05-05T06:18:36.491Z,4.00
2019-05-05T06:21:06.800Z,4.01
2019-05-05T06:23:37.103Z,3.93
2019-05-05T06:26:07.399Z,3.95
2019-05-05T06:28:37.596Z,3.97
2019-05-05T06:31:07.900Z,4.11
2019-05-05T06:33:38.168Z,4.49
2019-05-05T06:36:08.464Z,4.79
2019-05-05T06:38:39.195Z,4.98
2019-05-05T06:41:35.733Z,5.16
2019-05-05T06:44:30.309Z,5.54
2019-05-05T06:47:04.783Z,5.63
2019-05-05T06:49:35.236Z,5.71
2019-05-05T06:52:06.487Z,5.61
2019-05-05T06:54:37.021Z,5.55
2019-05-05T06:57:07.589Z,5.22
2019-05-05T06:59:38.099Z,5.13
2019-05-05T07:02:08.359Z,4.74
2019-05-05T07:04:38.595Z,4.66
2019-05-05T07:07:09.135Z,4.61
2019-05-05T07:09:39.334Z,4.67
2019-05-05T07:12:09.608Z,4.66
2019-05-05T07:14:39.876Z,4.62
2019-05-05T07:17:10.484Z,4.68
2019-05-05T07:19:40.693Z,4.72
2019-05-05T07:22:10.885Z,4.97
2019-05-05T07:24:41.060Z,5.26
2019-05-05T07:27:13.757Z,5.42
2019-05-05T07:29:43.890Z,5.53
2019-05-05T07:32:14.318Z,5.84
2019-05-05T07:34:57.937Z,6.00
2019-05-05T07:37:28.152Z,5.89
2019-05-05T07:39:58.773Z,5.89
2019-05-05T07:42:29.600Z,5.41
2019-05-05T07:44:59.861Z,5.37
2019-05-05T07:47:30.214Z,5.55
2019-05-05T07:50:00.391Z,6.16
2019-05-05T07:52:30.741Z,6.20
2019-05-05T07:55:00.956Z,6.45
2019-05-05T07:57:31.562Z,6.32
2019-05-05T08:00:01.905Z,6.41
2019-05-05T08:02:34.070Z,6.24
2019-05-05T08:05:04.910Z,6.70
2019-05-05T08:07:35.290Z,7.15
2019-05-05T08:10:06.099Z,6.87
2019-05-05T08:12:37.018Z,7.04
2019-05-05T08:15:08.128Z,7.40
2019-05-05T08:17:56.012Z,7.36
2019-05-05T08:20:33.775Z,7.15
2019-05-05T08:23:07.966Z,7.47
2019-05-05T08:25:45.368Z,7.68
2019-05-05T08:28:34.253Z,7.58
2019-05-05T08:31:29.701Z,7.77
2019-05-05T08:33:59.934Z,7.56
2019-05-05T08:36:30.353Z,7.52
2019-05-05T08:39:01.036Z,7.40
2019-05-05T08:41:33.847Z,7.63
2019-05-05T08:44:04.649Z,7.30
2019-05-05T08:46:34.972Z,7.74
2019-05-05T08:49:05.194Z,7.14
2019-05-05T08:51:35.504Z,6.79
2019-05-05T08:54:05.780Z,6.39
2019-05-05T08:56:37.094Z,6.38
2019-05-05T08:59:07.368Z,6.53
2019-05-05T09:01:37.735Z,6.48
2019-05-05T09:04:07.994Z,6.46
2019-05-05T09:06:38.310Z,6.67
2019-05-05T09:09:08.653Z,6.46
2019-05-05T09:11:38.927Z,6.79
2019-05-05T09:14:09.207Z,7.03
2019-05-05T09:16:39.470Z,7.36
2019-05-05T09:19:14.662Z,8.13
2019-05-05T09:21:45.173Z,8.43
2019-05-05T09:24:26.920Z,8.80
2019-05-05T09:27:34.478Z,8.40
2019-05-05T09:30:05.507Z,8.64
2019-05-05T09:32:36.954Z,8.54
2019-05-05T09:35:08.521Z,8.47
2019-05-05T09:37:38.883Z,8.28
2019-05-05T09:40:09.771Z,8.53
2019-05-05T09:42:40.399Z,8.66
2019-05-05T09:45:10.855Z,8.92
2019-05-05T09:47:41.136Z,10.01
2019-05-05T09:50:11.614Z,10.67
2019-05-05T09:52:41.893Z,11.09
2019-05-05T09:55:13.879Z,11.38
2019-05-05T09:57:44.306Z,11.21
2019-05-05T10:00:16.249Z,10.93
2019-05-05T10:02:46.676Z,10.67
2019-05-05T10:05:17.430Z,10.71
2019-05-05T10:07:48.109Z,10.47
2019-05-05T10:10:19.865Z,10.34
2019-05-05T10:12:52.374Z,10.37
2019-05-05T10:15:22.232Z,10.37
2019-05-05T10:17:54.189Z,10.34
2019-05-05T10:20:24.593Z,10.07
2019-05-05T10:22:54.940Z,10.27
2019-05-05T10:25:35.719Z,10.41
2019-05-05T10:28:06.028Z,10.29
2019-05-05T10:30:36.313Z,9.96
2019-05-05T10:33:06.687Z,9.59
2019-05-05T10:35:36.918Z,9.77
2019-05-05T10:38:07.239Z,9.77
2019-05-05T10:40:37.825Z,10.07
2019-05-05T10:43:08.246Z,10.77
2019-05-05T10:45:38.782Z,11.24
2019-05-05T10:48:09.091Z,13.05
2019-05-05T10:50:39.696Z,14.45
2019-05-05T10:53:10.275Z,13.74
2019-05-05T10:55:40.542Z,14.12
2019-05-05T10:58:10.838Z,15.74
2019-05-05T11:00:51.016Z,16.16
2019-05-05T11:03:21.216Z,16.16
2019-05-05T11:05:51.489Z,15.13
2019-05-05T11:08:22.128Z,13.72
2019-05-05T11:10:54.017Z,13.49
2019-05-05T11:13:24.449Z,14.90
2019-05-05T11:15:54.843Z,13.68
2019-05-05T11:18:26.658Z,12.45
2019-05-05T11:20:56.876Z,11.89
2019-05-05T11:23:27.133Z,10.99
2019-05-05T11:25:57.375Z,10.69
2019-05-05T11:28:27.544Z,10.63
2019-05-05T11:30:58.344Z,11.45
2019-05-05T11:33:54.285Z,12.41
2019-05-05T11:36:35.273Z,12.35
2019-05-05T11:39:07.474Z,11.66
2019-05-05T11:41:38.223Z,12.18
2019-05-05T11:44:09.021Z,12.36
2019-05-05T11:46:39.512Z,14.37
2019-05-05T11:49:10.761Z,16.48
2019-05-05T11:51:43.525Z,17.78
2019-05-05T11:54:14.184Z,18.37
2019-05-05T11:56:44.808Z,19.27
2019-05-05T11:59:15.155Z,19.29
2019-05-05T12:01:45.387Z,18.90
2019-05-05T12:04:16.391Z,16.41
2019-05-05T12:06:47.856Z,14.46
2019-05-05T12:09:24.926Z,13.25
2019-05-05T12:11:55.186Z,13.87
2019-05-05T12:14:27.707Z,13.32
2019-05-05T12:16:58.258Z,13.05
2019-05-05T12:19:28.958Z,12.19
2019-05-05T12:21:59.526Z,12.53
2019-05-05T12:24:33.964Z,14.53
2019-05-05T12:27:26.610Z,13.26
2019-05-05T12:30:08.556Z,12.59
2019-05-05T12:32:38.792Z,11.61
2019-05-05T12:35:09.450Z,10.67
2019-05-05T12:37:39.635Z,10.92
2019-05-05T12:40:10.608Z,11.07
2019-05-05T12:42:40.855Z,11.08
2019-05-05T12:45:14.617Z,12.44
2019-05-05T12:48:02.920Z,15.21
2019-05-05T12:50:33.909Z,18.28
2019-05-05T12:53:04.458Z,19.84
2019-05-05T12:55:41.330Z,20.77
2019-05-05T12:58:07.182Z,22.15
2019-05-05T13:00:39.408Z,22.63
2019-05-05T13:03:09.710Z,22.56
2019-05-05T13:05:39.989Z,23.20
2019-05-05T13:08:10.209Z,21.24
2019-05-05T13:10:40.761Z,20.15
2019-05-05T13:13:11.172Z,20.00
2019-05-05T13:15:41.782Z,18.40
2019-05-05T13:18:13.916Z,17.20
2019-05-05T13:21:04.228Z,14.64
2019-05-05T13:23:55.830Z,16.41
2019-05-05T13:26:45.012Z,18.10
2019-05-05T13:29:15.565Z,20.68
2019-05-05T13:31:46.197Z,22.40
2019-05-05T13:34:16.716Z,22.51
2019-05-05T13:36:47.464Z,21.41
2019-05-05T13:39:17.809Z,22.95
2019-05-05T13:41:48.098Z,23.64
2019-05-05T13:44:25.940Z,21.71
2019-05-05T13:46:56.330Z,21.33
2019-05-05T13:49:37.264Z,21.67
2019-05-05T13:52:07.816Z,22.49
2019-05-05T13:54:38.087Z,23.35
2019-05-05T13:57:08.304Z,22.13
2019-05-05T13:59:39.046Z,22.37
2019-05-05T14:02:09.420Z,21.13
2019-05-05T14:04:39.696Z,19.73
2019-05-05T14:07:09.979Z,20.55
2019-05-05T14:09:40.834Z,20.12
2019-05-05T14:12:11.460Z,18.39
2019-05-05T14:14:41.721Z,20.12
2019-05-05T14:17:14.615Z,20.58
2019-05-05T14:19:44.643Z,17.63
2019-05-05T14:22:15.995Z,16.02
2019-05-05T14:24:50.426Z,14.61
2019-05-05T14:27:20.897Z,13.99
2019-05-05T14:30:10.110Z,12.68
2019-05-05T14:32:41.515Z,11.74
2019-05-05T14:35:31.383Z,12.20
2019-05-05T14:38:05.207Z,12.53
2019-05-05T14:40:36.042Z,13.06
2019-05-05T14:43:06.660Z,13.05
2019-05-05T14:45:36.834Z,13.01
2019-05-05T14:48:07.411Z,16.71
2019-05-05T14:50:37.590Z,18.67
2019-05-05T14:53:07.804Z,21.21
2019-05-05T14:55:38.391Z,21.45
2019-05-05T14:58:08.683Z,21.02
2019-05-05T15:00:39.509Z,19.12
2019-05-05T15:03:09.969Z,20.85
2019-05-05T15:05:51.840Z,21.96
2019-05-05T15:08:41.018Z,23.39
2019-05-05T15:11:18.025Z,23.73
2019-05-05T15:13:48.359Z,23.99
2019-05-05T15:16:18.614Z,23.67
2019-05-05T15:18:49.285Z,25.23
2019-05-05T15:21:19.574Z,24.76
2019-05-05T15:23:50.183Z,25.59
2019-05-05T15:26:20.444Z,23.69
2019-05-05T15:29:00.943Z,23.84
2019-05-05T15:31:23.793Z,24.83
2019-05-05T15:33:54.185Z,25.39
2019-05-05T15:36:24.407Z,24.63
2019-05-05T15:38:55.221Z,19.35
2019-05-05T15:41:25.571Z,18.79
2019-05-05T15:43:55.831Z,21.12
2019-05-05T15:46:26.148Z,23.35
2019-05-05T15:48:56.353Z,26.48
2019-05-05T15:51:26.965Z,25.79
2019-05-05T15:53:57.887Z,24.21
2019-05-05T15:56:28.581Z,23.89
2019-05-05T15:58:59.314Z,24.61
2019-05-05T16:01:29.614Z,25.02
2019-05-05T16:03:59.823Z,24.38
2019-05-05T16:06:30.024Z,22.29
2019-05-05T16:09:00.290Z,21.72
2019-05-05T16:11:30.885Z,21.38
2019-05-05T16:14:01.308Z,18.95
2019-05-05T16:16:39.189Z,21.54
2019-05-05T16:19:31.508Z,22.34
2019-05-05T16:22:05.268Z,20.88
2019-05-05T16:24:37.539Z,18.42
2019-05-05T16:27:18.685Z,18.65
2019-05-05T16:29:41.105Z,18.57
2019-05-05T16:32:21.209Z,18.52
2019-05-05T16:34:43.387Z,21.05
2019-05-05T16:37:14.304Z,23.95
2019-05-05T16:39:46.651Z,23.67
2019-05-05T16:42:18.008Z,20.25
2019-05-05T16:44:48.222Z,18.50
2019-05-05T16:47:18.478Z,22.00
2019-05-05T16:49:48.774Z,19.02
2019-05-05T16:52:25.315Z,17.63
2019-05-05T16:55:10.916Z,18.92
2019-05-05T16:57:41.178Z,18.49
2019-05-05T17:00:11.918Z,16.26
2019-05-05T17:02:44.079Z,14.13
2019-05-05T17:05:14.933Z,13.15
2019-05-05T17:07:45.260Z,12.22
2019-05-05T17:10:15.840Z,11.93
2019-05-05T17:12:46.133Z,11.63
2019-05-05T17:15:35.472Z,11.48
2019-05-05T17:18:32.881Z,11.41
2019-05-05T17:21:01.246Z,11.46
2019-05-05T17:23:34.045Z,12.70
2019-05-05T17:26:03.768Z,12.47
2019-05-05T17:28:33.979Z,12.24
2019-05-05T17:31:04.568Z,13.32
2019-05-05T17:33:34.842Z,14.28
2019-05-05T17:36:05.010Z,13.83
2019-05-05T17:38:35.302Z,12.50
2019-05-05T17:41:24.408Z,11.27
2019-05-05T17:44:06.510Z,10.34
2019-05-05T17:46:59.289Z,9.97
2019-05-05T17:49:55.592Z,9.65
2019-05-05T17:52:46.619Z,9.42
2019-05-05T17:55:37.184Z,9.35
2019-05-05T17:58:07.741Z,9.09
2019-05-05T18:00:47.155Z,8.99
2019-05-05T18:03:18.310Z,8.90
2019-05-05T18:06:10.713Z,8.85
2019-05-05T18:08:53.951Z,8.68
2019-05-05T18:11:53.603Z,8.44
2019-05-05T18:14:25.580Z,8.24
2019-05-05T18:16:55.832Z,8.10
2019-05-05T18:19:26.197Z,7.99
2019-05-05T18:21:56.720Z,7.85
2019-05-05T18:24:26.940Z,7.70
2019-05-05T18:26:57.244Z,7.54
2019-05-05T18:29:27.975Z,7.48
2019-05-05T18:31:58.300Z,7.39
2019-05-05T18:34:28.723Z,7.33
2019-05-05T18:36:58.978Z,7.23
2019-05-05T18:39:29.323Z,7.26
2019-05-05T18:42:08.476Z,7.21
2019-05-05T18:44:44.523Z,7.18
2019-05-05T18:47:21.204Z,7.16
2019-05-05T18:49:53.833Z,7.15
2019-05-05T18:52:24.554Z,7.18
2019-05-05T18:54:55.412Z,7.12
2019-05-05T18:57:25.788Z,7.01
2019-05-05T18:59:56.400Z,6.93
2019-05-05T19:02:48.080Z,6.84
2019-05-05T19:05:36.847Z,6.66
2019-05-05T19:08:14.279Z,6.47
2019-05-05T19:10:44.837Z,6.29
2019-05-05T19:13:15.931Z,6.16
2019-05-05T19:15:46.207Z,6.07
2019-05-05T19:18:16.962Z,6.09
2019-05-05T19:20:55.870Z,6.06
2019-05-05T19:23:26.107Z,6.03
2019-05-05T19:25:56.682Z,5.96
2019-05-05T19:28:41.050Z,5.85
2019-05-05T19:30:59.012Z,5.81
2019-05-05T19:33:30.954Z,5.78
2019-05-05T19:36:01.644Z,5.78
2019-05-05T19:38:31.890Z,5.72
2019-05-05T19:41:03.936Z,5.74
2019-05-05T19:43:36.769Z,5.74
2019-05-05T19:46:08.356Z,5.81
2019-05-05T19:48:38.581Z,5.74
2019-05-05T19:51:14.015Z,5.74
2019-05-05T19:53:44.685Z,5.79
2019-05-05T19:56:15.520Z,5.96
2019-05-05T19:58:58.426Z,5.97
2019-05-05T20:01:31.580Z,5.90
2019-05-05T20:03:52.120Z,5.85
2019-05-05T20:06:23.693Z,5.90
2019-05-05T20:08:54.402Z,5.82
2019-05-05T20:11:24.829Z,5.76
2019-05-05T20:14:06.470Z,5.59
2019-05-05T20:16:36.298Z,5.52
2019-05-05T20:19:06.546Z,5.37
2019-05-05T20:21:37.210Z,5.29
2019-05-05T20:24:07.714Z,5.16
2019-05-05T20:26:38.054Z,5.04
2019-05-05T20:29:13.744Z,4.92
2019-05-05T20:31:40.357Z,4.86
2019-05-05T20:34:17.456Z,4.79
2019-05-05T20:37:05.441Z,4.72
2019-05-05T20:39:35.690Z,4.65
2019-05-05T20:42:06.469Z,4.57
2019-05-05T20:44:38.155Z,4.50
2019-05-05T20:47:08.398Z,4.45
2019-05-05T20:49:38.893Z,4.29
2019-05-05T20:52:09.173Z,4.17
2019-05-05T20:54:39.684Z,4.08
2019-05-05T20:57:10.005Z,4.01
2019-05-05T20:59:40.272Z,3.96
2019-05-05T21:02:10.862Z,3.96
2019-05-05T21:04:41.393Z,3.82
2019-05-05T21:07:13.945Z,3.75
2019-05-05T21:09:43.609Z,3.68
2019-05-05T21:12:15.115Z,3.62
2019-05-05T21:14:45.393Z,3.57
2019-05-05T21:17:15.691Z,3.54
2019-05-05T21:19:45.936Z,3.60
2019-05-05T21:22:30.927Z,3.61
2019-05-05T21:25:01.501Z,3.65
2019-05-05T21:27:31.733Z,3.62
2019-05-05T21:30:03.991Z,3.72
2019-05-05T21:32:34.150Z,3.82
2019-05-05T21:35:04.367Z,3.90
2019-05-05T21:37:34.651Z,3.93
2019-05-05T21:40:06.501Z,3.96
2019-05-05T21:42:36.731Z,3.98
2019-05-05T21:45:07.441Z,3.98
2019-05-05T21:47:37.685Z,4.00
2019-05-05T21:50:09.697Z,3.92
2019-05-05T21:52:45.129Z,3.83
2019-05-05T21:55:34.863Z,3.75
2019-05-05T21:58:25.275Z,3.63
2019-05-05T22:01:04.463Z,3.52
2019-05-05T22:03:37.455Z,3.55
2019-05-05T22:06:07.944Z,3.51
2019-05-05T22:08:38.249Z,3.33
2019-05-05T22:11:08.900Z,3.20
2019-05-05T22:13:39.224Z,3.13
2019-05-05T22:16:09.519Z,3.08
2019-05-05T22:18:39.793Z,3.07
2019-05-05T22:21:29.318Z,3.02
2019-05-05T22:24:17.206Z,2.90
2019-05-05T22:26:47.624Z,2.81
2019-05-05T22:29:18.644Z,2.74
2019-05-05T22:31:49.783Z,2.72
2019-05-05T22:34:20.304Z,2.65
2019-05-05T22:36:50.959Z,2.61
2019-05-05T22:39:21.252Z,2.57
2019-05-05T22:41:51.464Z,2.55
2019-05-05T22:44:21.705Z,2.48
2019-05-05T22:46:53.790Z,2.51
2019-05-05T22:49:24.292Z,2.50
2019-05-05T22:51:54.564Z,2.41
2019-05-05T22:54:25.362Z,2.44
2019-05-05T22:56:56.112Z,2.40
2019-05-05T22:59:26.715Z,2.50
2019-05-05T23:01:58.011Z,2.49
2019-05-05T23:04:45.564Z,2.43
2019-05-05T23:07:24.079Z,2.41
2019-05-05T23:09:54.428Z,2.26
2019-05-05T23:12:24.708Z,2.24
2019-05-05T23:14:54.984Z,2.22
2019-05-05T23:17:57.044Z,2.18
2019-05-05T23:21:03.446Z,2.16
2019-05-05T23:24:03.699Z,2.10
2019-05-05T23:26:36.018Z,2.13
2019-05-05T23:29:06.181Z,2.04
2019-05-05T23:31:36.450Z,1.96
2019-05-05T23:34:07.026Z,1.91
2019-05-05T23:36:37.263Z,1.87
2019-05-05T23:39:08.338Z,1.88
2019-05-05T23:41:38.501Z,1.84
2019-05-05T23:44:08.704Z,1.96
2019-05-05T23:46:38.977Z,1.93
2019-05-05T23:49:09.365Z,1.86
2019-05-05T23:51:39.627Z,1.71
2019-05-05T23:54:09.901Z,1.67
2019-05-05T23:56:40.168Z,1.61
2019-05-05T23:59:10.447Z,1.63
